Time;durP1;ratioP1;P1;durP2;ratioP2;P2;SDS_P1;SDS_P2;PMS_P1;PMS_P2;Temp;Humidity;BMP_temperature;BMP_pressure;BME280_temperature;BME280_humidity;BME280_pressure;Samples;Min_cycle;Max_cycle;Signal;HPM_P1;HPM_P2
2023/07/09 00:00:03;;;;;;;14.23;7.50;;;;;;;22.98;87.34;100722.06;8296842;28;20061;-60
2023/07/09 00:04:03;;;;;;;13.18;7.38;;;;;;;23.01;87.26;100736.28;8299928;28;20399;-61
2023/07/09 00:08:04;;;;;;;12.77;8.30;;;;;;;22.87;87.85;100726.34;8300806;28;20092;-60
2023/07/09 00:12:08;;;;;;;14.38;7.57;;;;;;;22.85;87.95;100734.00;8299611;28;20504;-60
2023/07/09 00:16:14;;;;;;;13.82;7.50;;;;;;;22.83;87.48;100732.50;8300641;28;20038;-61
2023/07/09 00:20:17;;;;;;;13.27;7.60;;;;;;;22.82;87.43;100734.44;8303522;28;20042;-61
2023/07/09 00:24:19;;;;;;;12.47;7.00;;;;;;;22.77;87.68;100725.94;8299718;28;20518;-61
2023/07/09 00:28:20;;;;;;;17.95;7.28;;;;;;;22.67;87.39;100725.53;8299970;28;20038;-60
2023/07/09 00:32:21;;;;;;;17.23;6.65;;;;;;;22.69;86.99;100733.59;8296107;28;20041;-60
2023/07/09 00:36:28;;;;;;;13.88;7.07;;;;;;;22.56;86.68;100728.91;8302267;28;20033;-60
2023/07/09 00:40:28;;;;;;;13.05;6.88;;;;;;;22.47;87.47;100721.03;8298203;28;20410;-60
2023/07/09 00:44:31;;;;;;;12.27;6.22;;;;;;;22.42;87.32;100721.66;8303761;28;20045;-60
2023/07/09 00:48:31;;;;;;;12.25;6.95;;;;;;;22.47;86.92;100724.66;8306458;28;20088;-60
2023/07/09 00:52:45;;;;;;;12.38;6.75;;;;;;;22.38;87.11;100720.41;8304250;28;20042;-62
2023/07/09 00:56:51;;;;;;;12.20;6.90;;;;;;;22.45;87.24;100721.25;8305913;28;20049;-61
2023/07/09 01:00:56;;;;;;;12.70;6.63;;;;;;;22.37;86.27;100735.25;8296098;28;20753;-60
2023/07/09 01:05:00;;;;;;;15.68;7.00;;;;;;;22.31;86.23;100733.34;8313331;28;20042;-60
2023/07/09 01:09:04;;;;;;;10.57;6.50;;;;;;;22.15;86.62;100742.03;8307180;28;20041;-61
2023/07/09 01:13:08;;;;;;;10.30;6.60;;;;;;;21.88;87.92;100740.28;8304334;28;20038;-61
2023/07/09 01:17:09;;;;;;;12.10;7.28;;;;;;;21.69;89.23;100735.53;8303588;28;20120;-60
2023/07/09 01:21:15;;;;;;;13.00;6.97;;;;;;;21.77;89.36;100737.28;8306575;28;20034;-60
2023/07/09 01:25:16;;;;;;;12.45;7.15;;;;;;;21.79;89.10;100736.00;8306736;28;20053;-61
2023/07/09 01:29:16;;;;;;;14.00;6.85;;;;;;;21.90;89.04;100738.19;8304508;28;20064;-61
2023/07/09 01:33:18;;;;;;;12.93;6.50;;;;;;;21.84;89.25;100741.75;8302223;28;20041;-61
2023/07/09 01:37:22;;;;;;;14.75;6.72;;;;;;;21.78;89.77;100745.34;8305246;28;20063;-60
2023/07/09 01:41:22;;;;;;;15.25;7.05;;;;;;;21.85;88.94;100746.19;8301867;28;20057;-60
2023/07/09 01:45:25;;;;;;;11.13;7.05;;;;;;;21.79;89.06;100741.53;8304980;28;20648;-60
2023/07/09 01:49:29;;;;;;;12.18;6.78;;;;;;;21.70;89.88;100745.47;8305723;28;20053;-60
2023/07/09 01:53:31;;;;;;;11.90;6.75;;;;;;;21.84;88.58;100749.16;8304136;28;20072;-60
2023/07/09 01:57:34;;;;;;;12.80;6.63;;;;;;;21.79;88.50;100741.53;8304016;28;20037;-61
2023/07/09 02:01:36;;;;;;;15.32;7.32;;;;;;;21.54;88.17;100745.84;8296745;28;20491;-61
2023/07/09 02:05:37;;;;;;;13.48;6.88;;;;;;;21.51;88.42;100743.50;8305333;28;20112;-61
2023/07/09 02:09:38;;;;;;;11.35;6.93;;;;;;;21.53;88.24;100738.63;8304158;28;20567;-61
2023/07/09 02:13:38;;;;;;;12.77;7.40;;;;;;;21.38;89.01;100746.22;8305367;28;20461;-61
2023/07/09 02:17:39;;;;;;;15.65;7.22;;;;;;;21.49;88.54;100750.25;8303276;28;20537;-61
2023/07/09 02:21:39;;;;;;;10.73;7.43;;;;;;;21.62;87.64;100740.16;8303390;28;20041;-66
2023/07/09 02:25:40;;;;;;;14.13;6.67;;;;;;;21.33;88.82;100743.22;8303051;28;20085;-66
2023/07/09 02:29:40;;;;;;;11.55;7.05;;;;;;;21.17;89.38;100736.16;8303210;28;20300;-66
2023/07/09 02:33:41;;;;;;;20.05;7.35;;;;;;;21.14;89.24;100743.97;8298558;28;20046;-66
2023/07/09 02:37:42;;;;;;;13.90;6.80;;;;;;;21.18;88.96;100754.38;8304880;28;20052;-67
2023/07/09 02:41:42;;;;;;;14.55;7.20;;;;;;;21.06;90.00;100749.63;8301821;28;20172;-66
2023/07/09 02:45:44;;;;;;;11.50;6.97;;;;;;;21.19;89.69;100755.19;8301735;28;20041;-66
2023/07/09 02:49:45;;;;;;;14.52;7.20;;;;;;;21.08;90.11;100747.53;8305715;28;20041;-66
2023/07/09 02:53:47;;;;;;;12.48;6.97;;;;;;;21.11;89.68;100758.97;8304267;28;20121;-66
2023/07/09 02:57:48;;;;;;;16.20;7.38;;;;;;;21.15;89.96;100756.66;8301246;28;20507;-66
2023/07/09 03:01:49;;;;;;;16.00;7.80;;;;;;;21.20;89.46;100751.41;8301839;28;20030;-65
2023/07/09 03:05:50;;;;;;;15.52;7.38;;;;;;;21.20;89.55;100754.16;8301110;28;20100;-64
2023/07/09 03:09:51;;;;;;;21.15;7.88;;;;;;;21.19;89.80;100755.19;8301784;28;20041;-64
2023/07/09 03:13:52;;;;;;;11.80;7.13;;;;;;;21.18;89.82;100767.25;8302886;28;20045;-64
2023/07/09 03:17:53;;;;;;;11.95;7.00;;;;;;;21.20;89.55;100763.25;8303378;28;20033;-65
2023/07/09 03:21:53;;;;;;;14.98;8.05;;;;;;;21.47;88.31;100758.72;8300599;28;20033;-64
2023/07/09 03:25:54;;;;;;;12.65;7.25;;;;;;;21.16;90.56;100763.84;8303335;28;20042;-64
2023/07/09 03:29:55;;;;;;;11.50;7.15;;;;;;;21.02;91.13;100771.16;8300375;28;20128;-64
2023/07/09 03:33:55;;;;;;;14.02;7.50;;;;;;;21.01;91.24;100774.97;8300426;28;20038;-65
2023/07/09 03:37:56;;;;;;;15.63;7.22;;;;;;;21.22;90.02;100777.66;8296144;28;20038;-64
2023/07/09 03:41:56;;;;;;;16.55;7.90;;;;;;;21.12;90.61;100781.81;8298901;28;20087;-64
2023/07/09 03:45:57;;;;;;;14.93;8.13;;;;;;;21.09;90.46;100777.56;8300475;28;20223;-64
2023/07/09 03:49:57;;;;;;;11.95;7.78;;;;;;;21.07;90.79;100776.06;8303336;28;20350;-64
2023/07/09 03:53:58;;;;;;;17.00;7.63;;;;;;;21.14;90.99;100785.22;8306251;28;20120;-64
2023/07/09 03:57:58;;;;;;;15.52;7.72;;;;;;;21.11;91.47;100788.38;8321549;28;20514;-64
2023/07/09 04:01:59;;;;;;;14.02;7.40;;;;;;;21.24;91.80;100793.94;8302654;28;20041;-64
2023/07/09 04:05:59;;;;;;;14.90;7.07;;;;;;;21.34;91.27;100786.16;8308658;28;20072;-64
2023/07/09 04:10:00;;;;;;;14.40;6.97;;;;;;;21.33;91.42;100789.97;8306106;28;20069;-64
2023/07/09 04:14:00;;;;;;;11.68;6.65;;;;;;;21.37;91.81;100791.25;8294100;28;20396;-64
2023/07/09 04:18:01;;;;;;;13.77;6.97;;;;;;;21.54;90.75;100791.78;8277101;28;20400;-64
2023/07/09 04:22:01;;;;;;;13.37;6.67;;;;;;;21.61;90.42;100781.63;8280769;28;20037;-64
2023/07/09 04:26:02;;;;;;;16.45;7.47;;;;;;;21.70;90.29;100789.53;8281287;28;20305;-64
2023/07/09 04:30:05;;;;;;;14.52;7.18;;;;;;;21.71;90.07;100788.44;8305182;28;20469;-63
2023/07/09 04:34:06;;;;;;;13.20;6.95;;;;;;;21.68;90.50;100788.88;8311811;28;20116;-63
2023/07/09 04:38:06;;;;;;;11.32;6.88;;;;;;;21.81;89.82;100791.72;8314933;28;20037;-63
2023/07/09 04:42:11;;;;;;;14.45;7.10;;;;;;;21.95;89.45;100784.31;8311707;28;20622;-64
2023/07/09 04:46:11;;;;;;;15.02;6.72;;;;;;;22.10;88.67;100788.63;8304696;28;20079;-64
2023/07/09 04:50:14;;;;;;;17.55;7.13;;;;;;;22.30;88.25;100785.91;8312343;28;20254;-64
2023/07/09 04:54:14;;;;;;;12.13;6.43;;;;;;;22.35;88.09;100786.97;8313655;28;20049;-64
2023/07/09 04:58:16;;;;;;;13.88;6.15;;;;;;;22.63;86.71;100795.09;8311240;28;20389;-64
2023/07/09 05:02:16;;;;;;;11.35;7.00;;;;;;;22.65;86.45;100781.91;8285426;28;20069;-64
2023/07/09 05:06:17;;;;;;;13.50;6.00;;;;;;;22.82;86.23;100789.56;8292168;28;20042;-64
2023/07/09 05:10:18;;;;;;;16.63;6.97;;;;;;;22.93;85.06;100788.91;8314812;28;20571;-64
2023/07/09 05:14:18;;;;;;;14.98;7.15;;;;;;;23.08;85.35;100789.53;8303911;28;20038;-64
2023/07/09 05:18:19;;;;;;;10.68;6.45;;;;;;;23.30;84.81;100784.63;8328146;28;20187;-64
2023/07/09 05:22:19;;;;;;;8.45;6.60;;;;;;;23.53;83.62;100775.84;8301794;28;20483;-65
2023/07/09 05:26:20;;;;;;;10.60;6.38;;;;;;;23.82;82.99;100775.28;8309648;28;20030;-64
2023/07/09 05:30:20;;;;;;;18.70;6.25;;;;;;;23.94;82.57;100773.53;8307130;28;20491;-64
2023/07/09 05:34:21;;;;;;;8.98;5.88;;;;;;;24.14;80.97;100769.63;8307456;28;20037;-65
2023/07/09 05:38:21;;;;;;;9.68;5.85;;;;;;;24.48;80.54;100773.81;8310505;28;20037;-64
2023/07/09 05:42:22;;;;;;;9.10;6.03;;;;;;;24.74;79.59;100781.94;8311518;28;20081;-64
2023/07/09 05:46:23;;;;;;;11.18;5.07;;;;;;;24.93;78.72;100773.47;8309999;28;20038;-64
2023/07/09 05:50:23;;;;;;;13.00;5.85;;;;;;;25.01;77.79;100772.34;8312396;28;20148;-64
2023/07/09 05:54:24;;;;;;;12.40;5.53;;;;;;;25.40;76.96;100771.91;8310893;28;20407;-64
2023/07/09 05:58:24;;;;;;;11.23;5.85;;;;;;;25.61;75.97;100777.00;8310684;28;20045;-64
2023/07/09 06:02:25;;;;;;;12.25;5.82;;;;;;;25.78;76.31;100775.28;8307432;28;20574;-65
2023/07/09 06:06:26;;;;;;;9.27;5.28;;;;;;;26.06;75.30;100783.03;8309430;28;20053;-64
2023/07/09 06:10:26;;;;;;;12.85;5.55;;;;;;;26.29;73.43;100772.88;8312629;28;20042;-65
2023/07/09 06:14:27;;;;;;;8.85;5.22;;;;;;;26.48;73.67;100782.84;8307782;28;20522;-65
2023/07/09 06:18:29;;;;;;;6.35;5.13;;;;;;;26.87;73.35;100786.03;8311290;28;20044;-64
2023/07/09 06:22:30;;;;;;;9.88;5.18;;;;;;;27.22;72.98;100784.09;8309828;28;20087;-64
2023/07/09 06:26:30;;;;;;;7.20;5.35;;;;;;;27.35;70.81;100795.03;8310086;28;20128;-65
2023/07/09 06:30:30;;;;;;;7.27;5.47;;;;;;;27.44;72.32;100783.28;8304104;28;20054;-65
2023/07/09 06:34:31;;;;;;;9.45;5.40;;;;;;;27.51;69.96;100785.94;8309784;28;20284;-65
2023/07/09 06:38:31;;;;;;;8.75;5.13;;;;;;;27.83;70.05;100792.72;8308478;28;20444;-65
2023/07/09 06:42:32;;;;;;;11.00;5.20;;;;;;;27.86;68.09;100792.28;8309531;28;20049;-65
2023/07/09 06:46:46;;;;;;;8.43;5.03;;;;;;;28.10;67.78;100788.31;8305446;28;20177;-64
2023/07/09 06:50:47;;;;;;;11.63;5.30;;;;;;;28.29;69.06;100781.44;8310986;28;20427;-65
2023/07/09 06:54:49;;;;;;;8.88;5.15;;;;;;;28.57;66.68;100790.63;8307652;28;20050;-65
2023/07/09 06:58:49;;;;;;;9.13;5.10;;;;;;;28.78;66.61;100791.81;8310676;28;20117;-65
2023/07/09 07:02:50;;;;;;;7.50;4.97;;;;;;;28.86;65.75;100793.34;8303893;28;20037;-65
2023/07/09 07:06:50;;;;;;;6.72;5.20;;;;;;;28.85;66.51;100800.88;8309321;28;20045;-65
2023/07/09 07:11:01;;;;;;;8.00;4.93;;;;;;;28.98;65.39;100792.16;8309315;28;20052;-65
2023/07/09 07:15:02;;;;;;;7.85;5.25;;;;;;;29.13;66.29;100795.22;8308953;28;20276;-60
2023/07/09 07:19:02;;;;;;;7.75;5.00;;;;;;;29.29;65.59;100787.94;8304187;28;20034;-61
2023/07/09 07:23:03;;;;;;;5.67;4.90;;;;;;;29.54;63.98;100785.50;8305177;28;20042;-60
2023/07/09 07:27:04;;;;;;;9.07;4.70;;;;;;;29.68;62.54;100779.34;8307089;28;20512;-60
2023/07/09 07:31:08;;;;;;;9.32;4.82;;;;;;;30.04;62.98;100781.44;8300564;28;20045;-60
2023/07/09 07:35:09;;;;;;;10.35;5.22;;;;;;;29.92;62.49;100789.09;8301507;28;20049;-60
2023/07/09 07:39:09;;;;;;;9.35;5.25;;;;;;;30.09;62.62;100784.28;8306507;28;20072;-60
2023/07/09 07:43:10;;;;;;;9.10;4.18;;;;;;;30.36;61.89;100771.22;8301356;28;20108;-60
2023/07/09 07:47:11;;;;;;;7.10;4.68;;;;;;;30.77;61.76;100777.22;8303621;28;20113;-60
2023/07/09 07:51:12;;;;;;;7.22;4.43;;;;;;;30.77;61.55;100782.81;8304171;28;20038;-60
2023/07/09 07:55:13;;;;;;;8.13;4.43;;;;;;;31.04;60.05;100778.00;8305904;28;20037;-60
2023/07/09 07:59:14;;;;;;;6.60;4.70;;;;;;;31.45;59.37;100766.00;8300489;28;20073;-60
2023/07/09 08:03:14;;;;;;;9.60;5.00;;;;;;;31.57;57.69;100775.84;8296638;28;20384;-60
2023/07/09 08:07:18;;;;;;;9.13;5.05;;;;;;;31.88;58.09;100776.84;8301547;28;20538;-60
2023/07/09 08:11:18;;;;;;;9.02;4.68;;;;;;;31.94;57.84;100770.16;8299336;28;20249;-60
2023/07/09 08:15:19;;;;;;;6.25;4.95;;;;;;;31.67;59.14;100769.44;8303925;28;20041;-60
2023/07/09 08:19:19;;;;;;;10.50;4.88;;;;;;;31.92;58.73;100764.84;8302819;28;20073;-61
2023/07/09 08:23:20;;;;;;;9.98;5.07;;;;;;;32.27;57.15;100758.50;8300439;28;20042;-60
2023/07/09 08:27:20;;;;;;;8.98;5.20;;;;;;;32.40;56.88;100757.97;8303127;28;20082;-60
2023/07/09 08:31:21;;;;;;;6.80;4.53;;;;;;;32.72;56.47;100758.56;8296313;28;20096;-60
2023/07/09 08:35:21;;;;;;;7.85;4.80;;;;;;;32.51;57.13;100770.88;8297445;28;20503;-60
2023/07/09 08:39:22;;;;;;;7.80;5.03;;;;;;;32.92;56.66;100758.59;8303280;28;20133;-61
2023/07/09 08:43:51;;;;;;;7.30;4.35;;;;;;;33.20;56.14;100757.13;8301931;28;20064;-60
2023/07/09 08:48:18;;;;;;;7.15;4.65;;;;;;;33.19;54.78;100767.53;8300420;28;20049;-60
2023/07/09 08:52:41;;;;;;;5.45;4.40;;;;;;;33.50;55.34;100762.69;8299222;28;20038;-60
2023/07/09 08:56:42;;;;;;;6.90;4.47;;;;;;;33.75;55.13;100749.41;8299200;28;20539;-60
2023/07/09 09:00:54;;;;;;;9.70;4.53;;;;;;;34.16;53.39;100752.03;8300397;28;20494;-60
2023/07/09 09:04:54;;;;;;;8.38;4.45;;;;;;;34.57;51.02;100737.44;8299481;28;20037;-60
2023/07/09 09:09:04;;;;;;;10.75;4.15;;;;;;;34.93;51.20;100732.38;8303020;28;20041;-60
2023/07/09 09:13:10;;;;;;;9.00;3.67;;;;;;;35.15;50.27;100730.75;8304210;28;20187;-60
2023/07/09 09:17:14;;;;;;;6.90;4.15;;;;;;;34.73;50.61;100722.13;8308162;28;20067;-60
2023/07/09 09:21:23;;;;;;;6.82;3.92;;;;;;;35.22;49.79;100724.78;8306736;28;20451;-60
2023/07/09 09:25:29;;;;;;;5.55;3.97;;;;;;;35.34;49.59;100711.19;8307873;28;20045;-60
2023/07/09 09:29:31;;;;;;;7.95;3.70;;;;;;;35.42;50.15;100716.13;8305540;28;20064;-60
2023/07/09 09:33:42;;;;;;;6.35;4.03;;;;;;;35.43;48.96;100715.03;8300272;28;20042;-60
2023/07/09 09:37:51;;;;;;;6.15;4.05;;;;;;;35.39;48.67;100713.91;8303215;28;20041;-61
2023/07/09 09:41:57;;;;;;;7.88;4.40;;;;;;;35.65;49.32;100707.66;8306522;28;21117;-61
2023/07/09 09:46:01;;;;;;;4.88;3.95;;;;;;;35.47;49.07;100710.47;8305800;28;20053;-60
2023/07/09 09:50:03;;;;;;;7.35;2.90;;;;;;;36.15;45.31;100705.31;8307602;28;20426;-60
2023/07/09 09:54:18;;;;;;;6.63;3.10;;;;;;;36.65;43.61;100693.25;8307515;28;20038;-61
2023/07/09 09:58:19;;;;;;;4.60;2.90;;;;;;;37.01;42.88;100697.97;8302073;28;20030;-61
2023/07/09 10:02:22;;;;;;;5.75;2.83;;;;;;;38.09;41.67;100685.00;8298382;28;20038;-60
2023/07/09 10:06:48;;;;;;;5.03;2.70;;;;;;;39.08;40.20;100692.09;8304563;28;20038;-60
2023/07/09 10:10:53;;;;;;;5.18;2.53;;;;;;;39.74;39.12;100685.38;8305634;28;20046;-61
2023/07/09 10:14:59;;;;;;;5.95;2.67;;;;;;;40.49;38.22;100688.66;8305609;28;20049;-61
2023/07/09 10:19:12;;;;;;;6.90;2.75;;;;;;;42.18;35.94;100691.19;8306570;28;20034;-60
2023/07/09 10:27:53;;;;;;;6.13;2.53;;;;;;;43.49;35.12;100694.88;8382182;27;20424;-60
2023/07/09 10:32:07;;;;;;;5.53;2.90;;;;;;;42.89;34.80;100695.56;8364782;27;20123;-60
2023/07/09 10:40:36;;;;;;;3.78;2.75;;;;;;;43.37;35.68;100707.09;8383988;27;20768;-60
2023/07/09 10:44:42;;;;;;;4.93;3.03;;;;;;;43.99;33.86;100701.88;8376889;27;20028;-60
2023/07/09 10:48:47;;;;;;;4.65;2.97;;;;;;;43.84;34.50;100705.44;8380399;28;20043;-60
2023/07/09 10:52:53;;;;;;;5.93;3.15;;;;;;;43.03;35.46;100696.09;8378818;27;20037;-60
2023/07/09 10:57:05;;;;;;;4.63;2.70;;;;;;;43.80;33.97;100687.41;8382289;27;20051;-60
2023/07/09 11:01:06;;;;;;;6.10;3.13;;;;;;;42.93;34.42;100681.47;8374148;27;20099;-60
2023/07/09 11:05:07;;;;;;;4.97;2.85;;;;;;;43.61;34.42;100678.63;8379707;27;20288;-60
2023/07/09 11:09:32;;;;;;;3.40;2.80;;;;;;;44.09;34.22;100672.84;8378519;27;20041;-60
2023/07/09 11:13:45;;;;;;;5.00;2.80;;;;;;;43.11;34.18;100658.16;8374664;27;20047;-61
2023/07/09 11:17:47;;;;;;;4.38;2.78;;;;;;;43.31;33.97;100651.53;8379386;27;20437;-60
2023/07/09 11:22:13;;;;;;;6.05;2.95;;;;;;;43.27;33.83;100650.59;8378857;28;20056;-60
2023/07/09 11:30:45;;;;;;;4.78;2.85;;;;;;;41.72;34.87;100651.53;8319902;27;20915;-61
2023/07/09 11:34:46;;;;;;;5.10;2.92;;;;;;;42.39;34.63;100649.38;8325586;28;20568;-60
2023/07/09 11:38:47;;;;;;;4.55;2.70;;;;;;;42.43;35.13;100641.78;8328090;28;20055;-60
2023/07/09 11:42:54;;;;;;;5.07;3.00;;;;;;;41.11;34.95;100646.50;8330608;28;20057;-60
2023/07/09 11:47:36;;;;;;;5.70;2.65;;;;;;;40.69;35.00;100649.13;8329224;28;20484;-60
2023/07/09 11:51:42;;;;;;;4.78;2.63;;;;;;;40.84;36.00;100648.56;8325093;28;20299;-60
2023/07/09 11:55:45;;;;;;;8.18;2.60;;;;;;;41.30;34.79;100646.91;8326201;28;20551;-60
2023/07/09 11:59:45;;;;;;;3.92;3.00;;;;;;;41.99;34.78;100654.72;8324660;28;20045;-60
2023/07/09 12:03:47;;;;;;;3.60;2.30;;;;;;;42.07;34.61;100650.97;8324812;28;20045;-60
2023/07/09 12:07:48;;;;;;;7.73;3.10;;;;;;;40.42;35.30;100649.47;8323933;28;20364;-60
2023/07/09 12:11:50;;;;;;;5.07;2.53;;;;;;;40.03;35.24;100626.94;8323664;28;20135;-60
2023/07/09 12:15:50;;;;;;;4.63;2.85;;;;;;;39.70;36.46;100620.06;8326131;28;20033;-60
2023/07/09 12:19:52;;;;;;;6.90;3.22;;;;;;;39.22;37.74;100619.25;8329319;28;20135;-60
2023/07/09 12:23:55;;;;;;;4.32;2.63;;;;;;;39.43;37.57;100603.38;8327026;28;20057;-65
2023/07/09 12:27:57;;;;;;;;;;;;;;;39.63;37.11;100588.56;8329922;28;20120;-65
2023/07/09 12:31:59;;;;;;;3.30;2.55;;;;;;;39.15;36.39;100596.28;8323308;28;19928;-65
2023/07/09 12:36:02;;;;;;;5.35;2.92;;;;;;;39.11;36.55;100595.25;8328217;28;20046;-65
2023/07/09 12:40:04;;;;;;;4.40;3.15;;;;;;;39.23;37.55;100586.97;8319383;28;20041;-65
2023/07/09 12:44:05;;;;;;;8.52;3.28;;;;;;;39.15;37.18;100584.97;8303953;28;20042;-65
2023/07/09 12:48:08;;;;;;;4.68;2.72;;;;;;;38.69;38.95;100574.06;8270368;28;20046;-65
2023/07/09 12:52:14;;;;;;;;;;;;;;;38.84;38.34;100578.47;8318438;28;20048;-64
2023/07/09 12:56:16;;;;;;;6.80;2.78;;;;;;;38.90;38.89;100580.84;8301641;28;19917;-65
2023/07/09 13:00:18;;;;;;;4.43;2.80;;;;;;;38.64;37.42;100584.72;8293112;28;20036;-65
2023/07/09 13:04:19;;;;;;;4.95;2.97;;;;;;;38.26;38.38;100574.97;8290733;28;20034;-65
2023/07/09 13:08:19;;;;;;;9.10;3.13;;;;;;;38.15;38.59;100565.09;8286336;28;20141;-65
2023/07/09 13:12:27;;;;;;;7.23;2.80;;;;;;;37.91;39.22;100570.19;8291975;28;20038;-65
2023/07/09 13:16:27;;;;;;;7.30;2.72;;;;;;;37.75;39.74;100571.72;8288540;28;20291;-65
2023/07/09 13:20:29;;;;;;;3.90;2.38;;;;;;;37.69;39.68;100578.63;8302229;28;20250;-65
2023/07/09 13:24:30;;;;;;;7.15;2.85;;;;;;;37.26;40.88;100576.19;8293045;28;20029;-65
2023/07/09 13:28:31;;;;;;;4.82;3.25;;;;;;;36.98;40.72;100573.66;8274924;28;20512;-65
2023/07/09 13:32:32;;;;;;;6.45;2.90;;;;;;;36.80;40.55;100566.97;8284879;28;20198;-65
2023/07/09 13:36:32;;;;;;;6.37;3.17;;;;;;;36.68;40.72;100577.91;8299649;28;20099;-65
2023/07/09 13:40:33;;;;;;;9.02;3.10;;;;;;;36.45;41.73;100598.63;8285700;28;20492;-64
2023/07/09 13:44:35;;;;;;;8.33;2.97;;;;;;;35.55;46.57;100600.03;8296686;28;20556;-65
2023/07/09 13:48:37;;;;;;;14.23;3.30;;;;;;;34.33;48.64;100614.91;8290884;28;20303;-64
2023/07/09 13:52:37;;;;;;;11.07;3.60;;;;;;;33.68;51.64;100614.22;8277949;28;20089;-66
2023/07/09 13:56:38;;;;;;;8.77;3.38;;;;;;;32.99;51.76;100624.63;8286169;28;20128;-64
2023/07/09 14:00:40;;;;;;;11.97;3.67;;;;;;;32.98;52.61;100645.38;8296551;28;20290;-66
2023/07/09 14:04:40;;;;;;;8.02;3.08;;;;;;;32.56;53.78;100670.06;8281445;28;20808;-67
2023/07/09 14:08:41;;;;;;;10.60;3.45;;;;;;;30.82;62.58;100685.06;8297948;28;20152;-66
2023/07/09 14:12:45;;;;;;;11.45;3.67;;;;;;;29.69;70.73;100677.88;8296873;28;20045;-65
2023/07/09 14:16:47;;;;;;;9.02;4.07;;;;;;;28.78;73.31;100710.28;8299575;28;20084;-66
2023/07/09 14:20:49;;;;;;;54.60;5.97;;;;;;;28.30;73.05;100785.94;8285318;28;20132;-66
2023/07/09 14:24:51;;;;;;;15.57;5.20;;;;;;;26.27;90.41;100791.69;8296151;28;20053;-66
2023/07/09 14:28:52;;;;;;;12.55;5.45;;;;;;;25.61;98.17;100867.56;8280217;28;20422;-66
2023/07/09 14:32:52;;;;;;;21.10;7.45;;;;;;;25.31;100.00;100916.41;8293335;28;20042;-66
2023/07/09 14:36:56;;;;;;;23.27;10.02;;;;;;;24.62;100.00;100847.31;8288814;28;20033;-66
2023/07/09 14:41:04;;;;;;;18.43;10.13;;;;;;;24.47;100.00;100814.47;8300887;28;20120;-66
2023/07/09 14:45:15;;;;;;;17.65;9.23;;;;;;;24.43;100.00;100824.25;8291479;28;20701;-65
2023/07/09 14:49:17;;;;;;;19.38;9.95;;;;;;;24.53;100.00;100818.25;8287040;28;20048;-66
2023/07/09 14:53:27;;;;;;;10.55;7.65;;;;;;;24.88;100.00;100822.25;8289390;28;20125;-58
2023/07/09 14:57:29;;;;;;;17.60;8.35;;;;;;;25.68;100.00;100849.78;8297619;28;20041;-61
2023/07/09 15:01:30;;;;;;;18.45;8.98;;;;;;;26.53;100.00;100851.47;8319470;28;20112;-61
2023/07/09 15:05:30;;;;;;;20.02;8.90;;;;;;;26.90;100.00;100852.19;8285561;28;20037;-59
2023/07/09 15:09:37;;;;;;;20.05;10.98;;;;;;;27.28;97.00;100827.59;8274850;28;20041;-68
2023/07/09 15:13:37;;;;;;;16.92;11.90;;;;;;;27.55;96.50;100823.25;8290993;28;20041;-60
2023/07/09 15:17:38;;;;;;;21.02;13.60;;;;;;;27.07;98.44;100858.75;8294156;28;20034;-60
2023/07/09 15:21:39;;;;;;;22.25;13.30;;;;;;;27.26;96.51;100863.13;8290626;28;20038;-60
2023/07/09 15:25:39;;;;;;;18.27;12.00;;;;;;;27.40;96.07;100878.44;8290531;28;20132;-60
2023/07/09 15:29:40;;;;;;;18.63;11.10;;;;;;;27.92;91.46;100827.41;8291693;28;20046;-62
2023/07/09 15:33:40;;;;;;;27.90;11.70;;;;;;;28.55;88.17;100819.81;8291450;28;20483;-60
2023/07/09 15:37:41;;;;;;;24.38;11.35;;;;;;;28.75;86.01;100800.69;8296417;28;20041;-59
2023/07/09 15:41:41;;;;;;;20.65;11.57;;;;;;;27.42;91.97;100790.16;8286320;28;20577;-67
2023/07/09 15:45:46;;;;;;;21.50;13.75;;;;;;;26.37;100.00;100791.09;8279045;28;20133;-67
2023/07/09 15:49:46;;;;;;;18.40;12.93;;;;;;;25.99;100.00;100774.84;8279206;28;20051;-68
2023/07/09 15:53:47;;;;;;;21.52;13.27;;;;;;;25.98;100.00;100764.81;8275226;28;20092;-67
2023/07/09 15:57:50;;;;;;;17.50;12.48;;;;;;;25.97;100.00;100760.31;8283419;28;20042;-67
2023/07/09 16:01:50;;;;;;;18.45;12.60;;;;;;;25.95;100.00;100740.28;8285533;28;20050;-67
2023/07/09 16:05:51;;;;;;;17.45;12.52;;;;;;;25.88;100.00;100731.25;8286334;28;20410;-67
2023/07/09 16:09:51;;;;;;;19.17;12.30;;;;;;;25.88;100.00;100720.16;8282992;28;20213;-67
2023/07/09 16:13:53;;;;;;;16.73;11.63;;;;;;;26.12;100.00;100705.34;8281578;28;21658;-64
2023/07/09 16:17:54;;;;;;;19.17;13.50;;;;;;;25.47;100.00;100706.25;8280793;28;20053;-64
2023/07/09 16:22:00;;;;;;;21.55;14.10;;;;;;;25.12;100.00;100713.44;8297725;28;20038;-67
2023/07/09 16:26:00;;;;;;;16.98;12.30;;;;;;;25.36;100.00;100720.88;8286557;28;20042;-67
2023/07/09 16:30:01;;;;;;;18.63;12.17;;;;;;;25.47;100.00;100711.78;8294507;28;20041;-67
2023/07/09 16:34:01;;;;;;;17.05;11.93;;;;;;;25.55;100.00;100725.28;8292288;28;20282;-67
2023/07/09 16:38:01;;;;;;;17.67;11.67;;;;;;;26.12;100.00;100735.81;8291891;28;20042;-63
2023/07/09 16:42:09;;;;;;;14.52;9.65;;;;;;;26.91;100.00;100734.50;8296613;28;20406;-66
2023/07/09 16:46:16;;;;;;;16.83;10.50;;;;;;;27.03;98.78;100740.91;8275924;28;20125;-65
2023/07/09 16:50:20;;;;;;;15.35;9.45;;;;;;;27.58;97.95;100768.03;8270828;28;20444;-56
2023/07/09 16:54:20;;;;;;;14.80;8.88;;;;;;;28.40;90.95;100788.91;8268807;28;20172;-65
2023/07/09 16:58:32;;;;;;;13.40;10.40;;;;;;;26.99;98.56;100781.34;8272525;28;20046;-63
2023/07/09 17:02:33;;;;;;;13.25;10.02;;;;;;;26.65;100.00;100794.94;8289851;28;20623;-62
2023/07/09 17:06:35;;;;;;;17.10;11.75;;;;;;;26.33;100.00;100782.44;8295305;28;20029;-63
2023/07/09 17:10:38;;;;;;;18.75;11.27;;;;;;;26.34;100.00;100786.88;8290939;28;20184;-62
2023/07/09 17:14:40;;;;;;;18.80;9.88;;;;;;;26.36;100.00;100779.19;8283418;28;20583;-63
2023/07/09 17:18:40;;;;;;;14.60;9.70;;;;;;;26.48;100.00;100781.97;8286401;28;20065;-63
2023/07/09 17:22:41;;;;;;;18.80;10.30;;;;;;;26.60;100.00;100774.53;8293056;28;20034;-63
2023/07/09 17:26:41;;;;;;;12.88;9.73;;;;;;;26.76;100.00;100768.31;8289162;28;20547;-63
2023/07/09 17:30:42;;;;;;;12.15;9.35;;;;;;;26.99;100.00;100767.47;8287421;28;20091;-64
2023/07/09 17:34:43;;;;;;;10.38;6.60;;;;;;;27.06;92.55;100779.28;8295784;28;20040;-63
2023/07/09 17:38:43;;;;;;;8.93;5.88;;;;;;;27.04;90.95;100773.16;8272465;28;20109;-63
2023/07/09 17:42:44;;;;;;;13.40;6.50;;;;;;;27.22;91.83;100764.66;8286060;28;20053;-63
2023/07/09 17:46:47;;;;;;;11.40;6.75;;;;;;;27.23;92.48;100764.44;8290435;28;20042;-64
2023/07/09 17:50:47;;;;;;;11.15;6.93;;;;;;;27.35;91.29;100770.03;8284894;28;20068;-63
2023/07/09 17:54:48;;;;;;;9.77;6.22;;;;;;;27.30;92.32;100764.34;8290167;28;20048;-63
2023/07/09 17:58:48;;;;;;;9.32;6.28;;;;;;;27.25;93.36;100761.44;8284213;28;20400;-63
2023/07/09 18:02:59;;;;;;;10.13;6.50;;;;;;;27.38;91.13;100750.09;8297733;28;20049;-63
2023/07/09 18:07:03;;;;;;;8.05;6.03;;;;;;;27.38;89.62;100750.91;8279727;28;20050;-64
2023/07/09 18:11:04;;;;;;;11.68;6.53;;;;;;;27.24;91.52;100756.94;8291006;28;20504;-63
2023/07/09 18:15:06;;;;;;;12.82;6.55;;;;;;;27.32;96.03;100756.63;8295543;28;20050;-63
2023/07/09 18:19:19;;;;;;;12.02;8.13;;;;;;;27.00;98.96;100747.81;8301572;28;20045;-63
2023/07/09 18:23:21;;;;;;;12.77;8.30;;;;;;;26.89;99.55;100754.19;8294065;28;20249;-63
2023/07/09 18:27:25;;;;;;;12.02;7.70;;;;;;;26.92;99.95;100744.56;8287816;28;20095;-63
2023/07/09 18:31:26;;;;;;;15.35;8.18;;;;;;;26.78;99.92;100744.75;8304048;28;20053;-64
2023/07/09 18:35:30;;;;;;;12.03;8.63;;;;;;;26.63;100.00;100736.06;8298074;28;20083;-63
2023/07/09 18:39:30;;;;;;;10.82;7.93;;;;;;;26.60;100.00;100741.25;8293849;28;20814;-64
2023/07/09 18:43:30;;;;;;;14.63;8.73;;;;;;;26.61;100.00;100729.91;8296033;28;20426;-63
2023/07/09 18:47:31;;;;;;;14.98;9.23;;;;;;;26.44;100.00;100726.13;8296154;28;20299;-64
2023/07/09 18:51:32;;;;;;;16.15;9.45;;;;;;;26.41;100.00;100732.16;8286927;28;20067;-64